sensor_id;sensor_type;location;lat;lon;timestamp;temperature;humidity
16829;DHT22;8531;48.078;11.968;2022-12-29T00:01:58;1.90;99.90
16829;DHT22;8531;48.078;11.968;2022-12-29T00:04:24;1.90;99.90
16829;DHT22;8531;48.078;11.968;2022-12-29T00:06:49;1.90;99.90
16829;DHT22;8531;48.078;11.968;2022-12-29T00:09:16;1.80;99.90
16829;DHT22;8531;48.078;11.968;2022-12-29T00:11:42;1.80;99.90
16829;DHT22;8531;48.078;11.968;2022-12-29T00:14:11;1.80;99.90
16829;DHT22;8531;48.078;11.968;2022-12-29T00:16:56;1.80;99.90
16829;DHT22;8531;48.078;11.968;2022-12-29T00:19:23;1.70;99.90
16829;DHT22;8531;48.078;11.968;2022-12-29T00:22:12;1.70;99.90
16829;DHT22;8531;48.078;11.968;2022-12-29T00:24:56;1.70;99.90
16829;DHT22;8531;48.078;11.968;2022-12-29T00:27:40;1.70;99.90
16829;DHT22;8531;48.078;11.968;2022-12-29T00:30:24;1.80;99.90
16829;DHT22;8531;48.078;11.968;2022-12-29T00:33:10;1.80;99.90
16829;DHT22;8531;48.078;11.968;2022-12-29T00:36:02;1.80;99.90
16829;DHT22;8531;48.078;11.968;2022-12-29T00:38:31;1.80;99.90
16829;DHT22;8531;48.078;11.968;2022-12-29T00:41:16;1.80;99.90
16829;DHT22;8531;48.078;11.968;2022-12-29T00:44:00;1.80;99.90
16829;DHT22;8531;48.078;11.968;2022-12-29T00:46:36;1.80;99.90
16829;DHT22;8531;48.078;11.968;2022-12-29T00:49:02;1.80;99.90
16829;DHT22;8531;48.078;11.968;2022-12-29T00:51:48;1.90;99.90
16829;DHT22;8531;48.078;11.968;2022-12-29T00:54:14;1.90;99.90
16829;DHT22;8531;48.078;11.968;2022-12-29T00:56:40;1.90;99.90
16829;DHT22;8531;48.078;11.968;2022-12-29T00:59:08;2.00;99.90
16829;DHT22;8531;48.078;11.968;2022-12-29T01:01:35;1.90;99.90
16829;DHT22;8531;48.078;11.968;2022-12-29T01:04:01;1.90;99.90
16829;DHT22;8531;48.078;11.968;2022-12-29T01:06:27;2.00;99.90
16829;DHT22;8531;48.078;11.968;2022-12-29T01:08:52;2.00;99.90
16829;DHT22;8531;48.078;11.968;2022-12-29T01:11:37;2.00;99.90
16829;DHT22;8531;48.078;11.968;2022-12-29T01:14:03;1.90;99.90
16829;DHT22;8531;48.078;11.968;2022-12-29T01:16:29;1.90;99.90
16829;DHT22;8531;48.078;11.968;2022-12-29T01:18:54;1.80;99.90
16829;DHT22;8531;48.078;11.968;2022-12-29T01:21:20;1.70;99.90
16829;DHT22;8531;48.078;11.968;2022-12-29T01:23:46;1.80;99.90
16829;DHT22;8531;48.078;11.968;2022-12-29T01:26:13;1.70;99.90
16829;DHT22;8531;48.078;11.968;2022-12-29T01:28:39;1.70;99.90
16829;DHT22;8531;48.078;11.968;2022-12-29T01:31:09;1.70;99.90
16829;DHT22;8531;48.078;11.968;2022-12-29T01:33:35;1.70;99.90
16829;DHT22;8531;48.078;11.968;2022-12-29T01:36:04;1.70;99.90
16829;DHT22;8531;48.078;11.968;2022-12-29T01:38:31;1.70;99.90
16829;DHT22;8531;48.078;11.968;2022-12-29T01:40:57;1.70;99.90
16829;DHT22;8531;48.078;11.968;2022-12-29T01:43:39;1.70;99.90
16829;DHT22;8531;48.078;11.968;2022-12-29T01:48:39;1.60;99.90
16829;DHT22;8531;48.078;11.968;2022-12-29T01:51:04;1.50;99.90
16829;DHT22;8531;48.078;11.968;2022-12-29T01:53:32;1.50;99.90
16829;DHT22;8531;48.078;11.968;2022-12-29T01:56:02;1.50;99.90
16829;DHT22;8531;48.078;11.968;2022-12-29T01:58:32;1.40;99.90
16829;DHT22;8531;48.078;11.968;2022-12-29T02:00:59;1.40;99.90
16829;DHT22;8531;48.078;11.968;2022-12-29T02:03:26;1.40;99.90
16829;DHT22;8531;48.078;11.968;2022-12-29T02:05:58;1.40;99.90
16829;DHT22;8531;48.078;11.968;2022-12-29T02:08:27;1.30;99.90
16829;DHT22;8531;48.078;11.968;2022-12-29T02:10:55;1.40;99.90
16829;DHT22;8531;48.078;11.968;2022-12-29T02:13:22;1.40;99.90
16829;DHT22;8531;48.078;11.968;2022-12-29T02:16:21;1.40;99.90
16829;DHT22;8531;48.078;11.968;2022-12-29T02:39:06;1.20;99.90
16829;DHT22;8531;48.078;11.968;2022-12-29T02:42:07;1.10;99.90
16829;DHT22;8531;48.078;11.968;2022-12-29T02:44:57;1.10;99.90
16829;DHT22;8531;48.078;11.968;2022-12-29T02:50:19;1.20;99.90
16829;DHT22;8531;48.078;11.968;2022-12-29T02:53:00;1.10;99.90
16829;DHT22;8531;48.078;11.968;2022-12-29T02:55:27;1.20;99.90
16829;DHT22;8531;48.078;11.968;2022-12-29T03:11:33;1.20;99.90
16829;DHT22;8531;48.078;11.968;2022-12-29T03:14:27;1.30;99.90
16829;DHT22;8531;48.078;11.968;2022-12-29T03:20:08;1.40;99.90
16829;DHT22;8531;48.078;11.968;2022-12-29T03:22:41;1.40;99.90
16829;DHT22;8531;48.078;11.968;2022-12-29T03:27:51;1.60;99.90
16829;DHT22;8531;48.078;11.968;2022-12-29T03:30:19;1.60;99.90
16829;DHT22;8531;48.078;11.968;2022-12-29T03:32:51;1.60;99.90
16829;DHT22;8531;48.078;11.968;2022-12-29T03:35:23;1.70;99.90
16829;DHT22;8531;48.078;11.968;2022-12-29T03:38:14;1.70;99.90
16829;DHT22;8531;48.078;11.968;2022-12-29T03:40:46;1.80;99.90
16829;DHT22;8531;48.078;11.968;2022-12-29T03:43:12;1.70;99.90
16829;DHT22;8531;48.078;11.968;2022-12-29T03:45:38;1.80;99.90
16829;DHT22;8531;48.078;11.968;2022-12-29T03:48:04;1.70;99.90
16829;DHT22;8531;48.078;11.968;2022-12-29T03:50:30;1.80;99.90
16829;DHT22;8531;48.078;11.968;2022-12-29T03:52:56;1.80;99.90
16829;DHT22;8531;48.078;11.968;2022-12-29T03:55:21;1.80;99.90
16829;DHT22;8531;48.078;11.968;2022-12-29T03:57:47;1.90;99.90
16829;DHT22;8531;48.078;11.968;2022-12-29T04:00:13;2.00;99.90
16829;DHT22;8531;48.078;11.968;2022-12-29T04:02:39;2.00;99.90
16829;DHT22;8531;48.078;11.968;2022-12-29T04:05:05;1.90;99.90
16829;DHT22;8531;48.078;11.968;2022-12-29T04:07:31;2.00;99.90
16829;DHT22;8531;48.078;11.968;2022-12-29T04:09:56;2.00;99.90
16829;DHT22;8531;48.078;11.968;2022-12-29T04:12:22;2.00;99.90
16829;DHT22;8531;48.078;11.968;2022-12-29T04:14:48;2.10;99.90
16829;DHT22;8531;48.078;11.968;2022-12-29T04:17:13;2.00;99.90
16829;DHT22;8531;48.078;11.968;2022-12-29T04:19:39;2.10;99.90
16829;DHT22;8531;48.078;11.968;2022-12-29T04:22:04;2.20;99.90
16829;DHT22;8531;48.078;11.968;2022-12-29T04:24:30;2.20;99.90
16829;DHT22;8531;48.078;11.968;2022-12-29T04:26:56;2.20;99.90
16829;DHT22;8531;48.078;11.968;2022-12-29T04:29:21;2.30;99.90
16829;DHT22;8531;48.078;11.968;2022-12-29T04:31:47;2.40;99.90
16829;DHT22;8531;48.078;11.968;2022-12-29T04:34:13;2.40;99.90
16829;DHT22;8531;48.078;11.968;2022-12-29T04:36:38;2.50;99.90
16829;DHT22;8531;48.078;11.968;2022-12-29T04:39:07;2.60;99.90
16829;DHT22;8531;48.078;11.968;2022-12-29T04:41:33;2.50;99.90
16829;DHT22;8531;48.078;11.968;2022-12-29T04:43:58;2.60;99.90
16829;DHT22;8531;48.078;11.968;2022-12-29T04:46:24;2.60;99.90
16829;DHT22;8531;48.078;11.968;2022-12-29T04:48:50;2.60;99.90
16829;DHT22;8531;48.078;11.968;2022-12-29T04:51:16;2.60;99.90
16829;DHT22;8531;48.078;11.968;2022-12-29T04:53:41;2.60;99.90
16829;DHT22;8531;48.078;11.968;2022-12-29T04:56:07;2.60;99.90
16829;DHT22;8531;48.078;11.968;2022-12-29T04:58:33;2.70;99.90
16829;DHT22;8531;48.078;11.968;2022-12-29T05:00:59;2.70;99.90
16829;DHT22;8531;48.078;11.968;2022-12-29T05:03:24;2.60;99.90
16829;DHT22;8531;48.078;11.968;2022-12-29T05:05:53;2.60;99.90
16829;DHT22;8531;48.078;11.968;2022-12-29T05:08:19;2.60;99.90
16829;DHT22;8531;48.078;11.968;2022-12-29T05:10:45;2.60;99.90
16829;DHT22;8531;48.078;11.968;2022-12-29T05:13:11;2.60;99.90
16829;DHT22;8531;48.078;11.968;2022-12-29T05:15:37;2.70;99.90
16829;DHT22;8531;48.078;11.968;2022-12-29T05:18:02;2.70;99.90
16829;DHT22;8531;48.078;11.968;2022-12-29T05:20:28;2.70;99.90
16829;DHT22;8531;48.078;11.968;2022-12-29T05:22:54;2.70;99.90
16829;DHT22;8531;48.078;11.968;2022-12-29T05:25:19;2.70;99.90
16829;DHT22;8531;48.078;11.968;2022-12-29T05:27:45;2.70;99.90
16829;DHT22;8531;48.078;11.968;2022-12-29T05:30:11;2.80;99.90
16829;DHT22;8531;48.078;11.968;2022-12-29T05:32:37;2.80;99.90
16829;DHT22;8531;48.078;11.968;2022-12-29T05:35:03;2.80;99.90
16829;DHT22;8531;48.078;11.968;2022-12-29T05:37:28;2.80;99.90
16829;DHT22;8531;48.078;11.968;2022-12-29T05:39:54;2.90;99.90
16829;DHT22;8531;48.078;11.968;2022-12-29T05:42:20;2.90;99.90
16829;DHT22;8531;48.078;11.968;2022-12-29T05:44:45;2.90;99.90
16829;DHT22;8531;48.078;11.968;2022-12-29T05:47:11;2.90;99.90
16829;DHT22;8531;48.078;11.968;2022-12-29T05:49:37;3.00;99.90
16829;DHT22;8531;48.078;11.968;2022-12-29T05:52:02;2.90;99.90
16829;DHT22;8531;48.078;11.968;2022-12-29T05:54:28;2.90;99.90
16829;DHT22;8531;48.078;11.968;2022-12-29T05:56:54;2.90;99.90
16829;DHT22;8531;48.078;11.968;2022-12-29T05:59:19;2.90;99.90
16829;DHT22;8531;48.078;11.968;2022-12-29T06:01:45;2.90;99.90
16829;DHT22;8531;48.078;11.968;2022-12-29T06:04:11;2.90;99.90
16829;DHT22;8531;48.078;11.968;2022-12-29T06:06:36;3.00;99.90
16829;DHT22;8531;48.078;11.968;2022-12-29T06:09:02;3.10;99.90
16829;DHT22;8531;48.078;11.968;2022-12-29T06:11:28;3.10;99.90
16829;DHT22;8531;48.078;11.968;2022-12-29T06:13:53;3.10;99.90
16829;DHT22;8531;48.078;11.968;2022-12-29T06:16:19;3.10;99.90
16829;DHT22;8531;48.078;11.968;2022-12-29T06:18:45;3.30;99.90
16829;DHT22;8531;48.078;11.968;2022-12-29T06:21:10;3.20;99.90
16829;DHT22;8531;48.078;11.968;2022-12-29T06:23:36;3.20;99.90
16829;DHT22;8531;48.078;11.968;2022-12-29T06:26:02;3.20;99.90
16829;DHT22;8531;48.078;11.968;2022-12-29T06:28:27;3.20;99.90
16829;DHT22;8531;48.078;11.968;2022-12-29T06:30:53;3.30;99.90
16829;DHT22;8531;48.078;11.968;2022-12-29T06:33:19;3.30;99.90
16829;DHT22;8531;48.078;11.968;2022-12-29T06:35:45;3.20;99.90
16829;DHT22;8531;48.078;11.968;2022-12-29T06:38:11;3.20;99.90
16829;DHT22;8531;48.078;11.968;2022-12-29T06:40:36;3.20;99.90
16829;DHT22;8531;48.078;11.968;2022-12-29T06:43:02;3.10;99.90
16829;DHT22;8531;48.078;11.968;2022-12-29T06:45:28;3.10;99.90
16829;DHT22;8531;48.078;11.968;2022-12-29T06:47:54;3.10;99.90
16829;DHT22;8531;48.078;11.968;2022-12-29T06:50:19;3.10;99.90
16829;DHT22;8531;48.078;11.968;2022-12-29T06:52:45;3.20;99.90
16829;DHT22;8531;48.078;11.968;2022-12-29T06:55:10;3.10;99.90
16829;DHT22;8531;48.078;11.968;2022-12-29T06:57:36;3.20;99.90
16829;DHT22;8531;48.078;11.968;2022-12-29T07:00:03;3.30;99.90
16829;DHT22;8531;48.078;11.968;2022-12-29T07:02:30;3.30;99.90
16829;DHT22;8531;48.078;11.968;2022-12-29T07:04:56;3.30;99.90
16829;DHT22;8531;48.078;11.968;2022-12-29T07:07:21;3.20;99.90
16829;DHT22;8531;48.078;11.968;2022-12-29T07:09:47;3.30;99.90
16829;DHT22;8531;48.078;11.968;2022-12-29T07:12:13;3.30;99.90
16829;DHT22;8531;48.078;11.968;2022-12-29T07:14:38;3.30;99.90
16829;DHT22;8531;48.078;11.968;2022-12-29T07:17:04;3.40;99.90
16829;DHT22;8531;48.078;11.968;2022-12-29T07:19:32;3.30;99.90
16829;DHT22;8531;48.078;11.968;2022-12-29T07:21:57;3.30;99.90
16829;DHT22;8531;48.078;11.968;2022-12-29T07:24:23;3.30;99.90
16829;DHT22;8531;48.078;11.968;2022-12-29T07:26:51;3.30;99.90
16829;DHT22;8531;48.078;11.968;2022-12-29T07:29:17;3.30;99.90
16829;DHT22;8531;48.078;11.968;2022-12-29T07:31:42;3.30;99.90
16829;DHT22;8531;48.078;11.968;2022-12-29T07:34:09;3.40;99.90
16829;DHT22;8531;48.078;11.968;2022-12-29T07:36:34;3.40;99.90
16829;DHT22;8531;48.078;11.968;2022-12-29T07:39:00;3.50;99.90
16829;DHT22;8531;48.078;11.968;2022-12-29T07:41:26;3.60;99.90
16829;DHT22;8531;48.078;11.968;2022-12-29T07:43:51;3.60;99.90
16829;DHT22;8531;48.078;11.968;2022-12-29T07:46:17;3.60;99.90
16829;DHT22;8531;48.078;11.968;2022-12-29T07:48:43;3.70;99.90
16829;DHT22;8531;48.078;11.968;2022-12-29T07:51:08;3.70;99.90
16829;DHT22;8531;48.078;11.968;2022-12-29T07:53:35;3.70;99.90
16829;DHT22;8531;48.078;11.968;2022-12-29T07:56:00;3.70;99.90
16829;DHT22;8531;48.078;11.968;2022-12-29T07:58:26;3.90;99.90
16829;DHT22;8531;48.078;11.968;2022-12-29T08:00:55;3.90;99.90
16829;DHT22;8531;48.078;11.968;2022-12-29T08:03:21;4.00;99.90
16829;DHT22;8531;48.078;11.968;2022-12-29T08:05:47;4.10;99.90
16829;DHT22;8531;48.078;11.968;2022-12-29T08:08:13;4.10;99.90
16829;DHT22;8531;48.078;11.968;2022-12-29T08:10:39;4.10;99.90
16829;DHT22;8531;48.078;11.968;2022-12-29T08:13:04;4.10;99.90
16829;DHT22;8531;48.078;11.968;2022-12-29T08:15:30;4.20;99.90
16829;DHT22;8531;48.078;11.968;2022-12-29T08:17:56;4.10;99.90
16829;DHT22;8531;48.078;11.968;2022-12-29T08:20:21;4.20;99.90
16829;DHT22;8531;48.078;11.968;2022-12-29T08:22:47;4.20;99.90
16829;DHT22;8531;48.078;11.968;2022-12-29T08:25:13;4.20;99.90
16829;DHT22;8531;48.078;11.968;2022-12-29T08:27:39;4.30;99.90
16829;DHT22;8531;48.078;11.968;2022-12-29T08:30:05;4.30;99.90
16829;DHT22;8531;48.078;11.968;2022-12-29T08:32:31;4.40;99.90
16829;DHT22;8531;48.078;11.968;2022-12-29T08:34:56;4.50;99.90
16829;DHT22;8531;48.078;11.968;2022-12-29T08:37:22;4.50;99.90
16829;DHT22;8531;48.078;11.968;2022-12-29T08:39:48;4.50;99.90
16829;DHT22;8531;48.078;11.968;2022-12-29T08:42:14;4.60;99.90
16829;DHT22;8531;48.078;11.968;2022-12-29T08:44:39;4.60;99.90
16829;DHT22;8531;48.078;11.968;2022-12-29T08:47:05;4.70;99.90
16829;DHT22;8531;48.078;11.968;2022-12-29T08:49:31;4.80;99.90
16829;DHT22;8531;48.078;11.968;2022-12-29T08:51:58;4.80;99.90
16829;DHT22;8531;48.078;11.968;2022-12-29T08:54:24;4.80;99.90
16829;DHT22;8531;48.078;11.968;2022-12-29T08:56:50;4.90;99.90
16829;DHT22;8531;48.078;11.968;2022-12-29T08:59:15;4.90;99.90
16829;DHT22;8531;48.078;11.968;2022-12-29T09:01:41;4.80;99.90
16829;DHT22;8531;48.078;11.968;2022-12-29T09:04:08;4.80;99.90
16829;DHT22;8531;48.078;11.968;2022-12-29T09:06:33;4.90;99.90
16829;DHT22;8531;48.078;11.968;2022-12-29T09:08:59;5.00;99.90
16829;DHT22;8531;48.078;11.968;2022-12-29T09:11:25;5.00;99.90
16829;DHT22;8531;48.078;11.968;2022-12-29T09:13:51;5.10;99.90
16829;DHT22;8531;48.078;11.968;2022-12-29T09:16:18;5.10;99.90
16829;DHT22;8531;48.078;11.968;2022-12-29T09:18:44;5.20;99.90
16829;DHT22;8531;48.078;11.968;2022-12-29T09:21:11;5.20;99.90
16829;DHT22;8531;48.078;11.968;2022-12-29T09:23:37;5.30;99.90
16829;DHT22;8531;48.078;11.968;2022-12-29T09:26:03;5.20;99.90
16829;DHT22;8531;48.078;11.968;2022-12-29T09:28:29;5.30;99.90
16829;DHT22;8531;48.078;11.968;2022-12-29T09:30:56;5.30;99.90
16829;DHT22;8531;48.078;11.968;2022-12-29T09:33:22;5.30;99.90
16829;DHT22;8531;48.078;11.968;2022-12-29T09:35:56;5.30;99.90
16829;DHT22;8531;48.078;11.968;2022-12-29T09:38:23;5.30;99.90
16829;DHT22;8531;48.078;11.968;2022-12-29T09:41:24;5.30;99.90
16829;DHT22;8531;48.078;11.968;2022-12-29T09:44:07;5.30;99.90
16829;DHT22;8531;48.078;11.968;2022-12-29T09:46:37;5.30;99.90
16829;DHT22;8531;48.078;11.968;2022-12-29T09:51:52;5.30;99.90
16829;DHT22;8531;48.078;11.968;2022-12-29T09:54:38;5.40;99.90
16829;DHT22;8531;48.078;11.968;2022-12-29T09:57:20;5.50;99.90
16829;DHT22;8531;48.078;11.968;2022-12-29T09:59:49;5.60;99.90
16829;DHT22;8531;48.078;11.968;2022-12-29T10:02:38;5.60;99.90
16829;DHT22;8531;48.078;11.968;2022-12-29T10:05:19;5.60;99.90
16829;DHT22;8531;48.078;11.968;2022-12-29T10:10:46;5.60;99.90
16829;DHT22;8531;48.078;11.968;2022-12-29T10:13:29;5.70;99.90
16829;DHT22;8531;48.078;11.968;2022-12-29T10:16:18;5.80;99.90
16829;DHT22;8531;48.078;11.968;2022-12-29T10:24:12;6.20;99.90
16829;DHT22;8531;48.078;11.968;2022-12-29T10:26:41;6.30;99.90
16829;DHT22;8531;48.078;11.968;2022-12-29T10:29:19;6.30;99.90
16829;DHT22;8531;48.078;11.968;2022-12-29T10:31:59;6.40;99.90
16829;DHT22;8531;48.078;11.968;2022-12-29T10:34:29;6.50;99.90
16829;DHT22;8531;48.078;11.968;2022-12-29T10:37:02;6.60;99.90
16829;DHT22;8531;48.078;11.968;2022-12-29T10:39:37;6.60;99.90
16829;DHT22;8531;48.078;11.968;2022-12-29T10:42:36;6.60;99.90
16829;DHT22;8531;48.078;11.968;2022-12-29T10:45:00;6.70;99.90
16829;DHT22;8531;48.078;11.968;2022-12-29T10:47:29;6.70;99.90
16829;DHT22;8531;48.078;11.968;2022-12-29T10:49:57;6.70;99.90
16829;DHT22;8531;48.078;11.968;2022-12-29T10:52:26;6.80;99.90
16829;DHT22;8531;48.078;11.968;2022-12-29T10:55:00;6.80;99.90
16829;DHT22;8531;48.078;11.968;2022-12-29T10:57:45;6.90;99.90
16829;DHT22;8531;48.078;11.968;2022-12-29T11:00:22;6.90;99.90
16829;DHT22;8531;48.078;11.968;2022-12-29T11:05:57;7.00;99.90
16829;DHT22;8531;48.078;11.968;2022-12-29T11:08:33;7.10;99.90
16829;DHT22;8531;48.078;11.968;2022-12-29T11:11:06;7.00;99.90
16829;DHT22;8531;48.078;11.968;2022-12-29T11:13:34;7.10;99.90
16829;DHT22;8531;48.078;11.968;2022-12-29T11:16:00;7.10;99.90
16829;DHT22;8531;48.078;11.968;2022-12-29T11:18:34;7.20;99.90
16829;DHT22;8531;48.078;11.968;2022-12-29T11:21:07;7.20;99.90
16829;DHT22;8531;48.078;11.968;2022-12-29T11:24:00;7.20;99.90
16829;DHT22;8531;48.078;11.968;2022-12-29T11:26:27;7.20;99.90
16829;DHT22;8531;48.078;11.968;2022-12-29T11:31:30;7.40;99.90
16829;DHT22;8531;48.078;11.968;2022-12-29T11:33:56;7.40;99.90
16829;DHT22;8531;48.078;11.968;2022-12-29T11:36:24;7.40;99.90
16829;DHT22;8531;48.078;11.968;2022-12-29T11:38:52;7.40;99.90
16829;DHT22;8531;48.078;11.968;2022-12-29T11:41:26;7.40;99.90
16829;DHT22;8531;48.078;11.968;2022-12-29T11:43:53;7.50;99.90
16829;DHT22;8531;48.078;11.968;2022-12-29T11:46:25;7.50;99.90
16829;DHT22;8531;48.078;11.968;2022-12-29T11:48:52;7.50;99.90
16829;DHT22;8531;48.078;11.968;2022-12-29T11:51:27;7.50;99.90
16829;DHT22;8531;48.078;11.968;2022-12-29T11:53:57;7.60;99.90
16829;DHT22;8531;48.078;11.968;2022-12-29T11:56:36;7.60;99.90
16829;DHT22;8531;48.078;11.968;2022-12-29T12:01:53;7.80;99.90
16829;DHT22;8531;48.078;11.968;2022-12-29T12:04:23;7.80;99.90
16829;DHT22;8531;48.078;11.968;2022-12-29T12:07:08;7.80;99.90
16829;DHT22;8531;48.078;11.968;2022-12-29T12:09:47;7.90;99.90
16829;DHT22;8531;48.078;11.968;2022-12-29T12:12:35;7.90;99.90
16829;DHT22;8531;48.078;11.968;2022-12-29T12:15:03;7.90;99.90
16829;DHT22;8531;48.078;11.968;2022-12-29T12:20:57;8.10;99.90
16829;DHT22;8531;48.078;11.968;2022-12-29T12:23:42;8.10;99.90
16829;DHT22;8531;48.078;11.968;2022-12-29T12:26:17;8.20;99.90
16829;DHT22;8531;48.078;11.968;2022-12-29T12:29:14;8.20;99.90
16829;DHT22;8531;48.078;11.968;2022-12-29T12:34:38;8.30;99.90
16829;DHT22;8531;48.078;11.968;2022-12-29T12:40:36;8.40;99.90
16829;DHT22;8531;48.078;11.968;2022-12-29T12:57:40;8.90;99.90
16829;DHT22;8531;48.078;11.968;2022-12-29T13:00:16;8.90;99.90
16829;DHT22;8531;48.078;11.968;2022-12-29T13:05:25;8.90;99.90
16829;DHT22;8531;48.078;11.968;2022-12-29T13:19:41;9.10;99.90
16829;DHT22;8531;48.078;11.968;2022-12-29T13:22:33;9.20;99.90
16829;DHT22;8531;48.078;11.968;2022-12-29T13:25:33;9.30;99.90
16829;DHT22;8531;48.078;11.968;2022-12-29T13:36:33;9.50;99.90
16829;DHT22;8531;48.078;11.968;2022-12-29T13:39:05;9.50;99.90
16829;DHT22;8531;48.078;11.968;2022-12-29T13:41:40;9.50;99.90
16829;DHT22;8531;48.078;11.968;2022-12-29T13:44:09;9.60;99.90
16829;DHT22;8531;48.078;11.968;2022-12-29T13:46:43;9.60;99.90
16829;DHT22;8531;48.078;11.968;2022-12-29T13:49:21;9.60;99.90
16829;DHT22;8531;48.078;11.968;2022-12-29T13:51:59;9.60;99.90
16829;DHT22;8531;48.078;11.968;2022-12-29T14:00:02;9.50;99.90
16829;DHT22;8531;48.078;11.968;2022-12-29T14:08:04;9.50;99.90
16829;DHT22;8531;48.078;11.968;2022-12-29T14:10:37;9.40;99.90
16829;DHT22;8531;48.078;11.968;2022-12-29T14:13:16;9.40;99.90
16829;DHT22;8531;48.078;11.968;2022-12-29T14:15:44;9.30;99.90
16829;DHT22;8531;48.078;11.968;2022-12-29T14:20:48;9.30;99.90
16829;DHT22;8531;48.078;11.968;2022-12-29T14:23:27;9.30;99.90
16829;DHT22;8531;48.078;11.968;2022-12-29T14:26:13;9.30;99.90
16829;DHT22;8531;48.078;11.968;2022-12-29T14:28:45;9.20;99.90
16829;DHT22;8531;48.078;11.968;2022-12-29T14:33:41;9.10;99.90
16829;DHT22;8531;48.078;11.968;2022-12-29T14:36:40;9.10;99.90
16829;DHT22;8531;48.078;11.968;2022-12-29T14:39:38;9.10;99.90
16829;DHT22;8531;48.078;11.968;2022-12-29T14:45:01;9.00;99.90
16829;DHT22;8531;48.078;11.968;2022-12-29T14:47:32;8.90;99.90
16829;DHT22;8531;48.078;11.968;2022-12-29T14:52:30;8.90;99.90
16829;DHT22;8531;48.078;11.968;2022-12-29T14:54:56;8.90;99.90
16829;DHT22;8531;48.078;11.968;2022-12-29T14:58:12;8.80;99.90
16829;DHT22;8531;48.078;11.968;2022-12-29T15:00:23;8.80;99.90
16829;DHT22;8531;48.078;11.968;2022-12-29T15:03:07;8.80;99.90
16829;DHT22;8531;48.078;11.968;2022-12-29T15:05:45;8.80;99.90
16829;DHT22;8531;48.078;11.968;2022-12-29T15:08:25;8.80;99.90
16829;DHT22;8531;48.078;11.968;2022-12-29T15:11:14;8.60;99.90
16829;DHT22;8531;48.078;11.968;2022-12-29T15:13:42;8.60;99.90
16829;DHT22;8531;48.078;11.968;2022-12-29T15:16:24;8.50;99.90
16829;DHT22;8531;48.078;11.968;2022-12-29T15:18:51;8.50;99.90
16829;DHT22;8531;48.078;11.968;2022-12-29T15:21:19;8.40;99.90
16829;DHT22;8531;48.078;11.968;2022-12-29T15:23:46;8.30;99.90
16829;DHT22;8531;48.078;11.968;2022-12-29T15:26:12;8.20;99.90
16829;DHT22;8531;48.078;11.968;2022-12-29T15:28:46;8.00;99.90
16829;DHT22;8531;48.078;11.968;2022-12-29T15:31:15;7.90;99.90
16829;DHT22;8531;48.078;11.968;2022-12-29T15:33:43;7.80;99.90
16829;DHT22;8531;48.078;11.968;2022-12-29T15:36:21;7.60;99.90
16829;DHT22;8531;48.078;11.968;2022-12-29T15:38:48;7.50;99.90
16829;DHT22;8531;48.078;11.968;2022-12-29T15:41:35;7.50;99.90
16829;DHT22;8531;48.078;11.968;2022-12-29T15:46:51;7.50;99.90
16829;DHT22;8531;48.078;11.968;2022-12-29T15:49:17;7.40;99.90
16829;DHT22;8531;48.078;11.968;2022-12-29T15:51:43;7.30;99.90
16829;DHT22;8531;48.078;11.968;2022-12-29T15:54:17;7.40;99.90
16829;DHT22;8531;48.078;11.968;2022-12-29T15:56:43;7.50;99.90
16829;DHT22;8531;48.078;11.968;2022-12-29T15:59:30;7.40;99.90
16829;DHT22;8531;48.078;11.968;2022-12-29T16:01:57;7.30;99.90
16829;DHT22;8531;48.078;11.968;2022-12-29T16:04:27;7.40;99.90
16829;DHT22;8531;48.078;11.968;2022-12-29T16:07:00;7.30;99.90
16829;DHT22;8531;48.078;11.968;2022-12-29T16:09:36;7.30;99.90
16829;DHT22;8531;48.078;11.968;2022-12-29T16:12:13;7.30;99.90
16829;DHT22;8531;48.078;11.968;2022-12-29T16:14:46;7.40;99.90
16829;DHT22;8531;48.078;11.968;2022-12-29T16:17:14;7.30;99.90
16829;DHT22;8531;48.078;11.968;2022-12-29T16:19:51;7.20;99.90
16829;DHT22;8531;48.078;11.968;2022-12-29T16:22:36;7.10;99.90
16829;DHT22;8531;48.078;11.968;2022-12-29T16:25:22;7.00;99.90
16829;DHT22;8531;48.078;11.968;2022-12-29T16:27:49;7.00;99.90
16829;DHT22;8531;48.078;11.968;2022-12-29T16:30:25;7.00;99.90
16829;DHT22;8531;48.078;11.968;2022-12-29T16:32:53;6.90;99.90
16829;DHT22;8531;48.078;11.968;2022-12-29T16:35:24;6.90;99.90
16829;DHT22;8531;48.078;11.968;2022-12-29T16:38:14;6.80;99.90
16829;DHT22;8531;48.078;11.968;2022-12-29T16:41:01;6.80;99.90
16829;DHT22;8531;48.078;11.968;2022-12-29T16:43:32;6.80;99.90
16829;DHT22;8531;48.078;11.968;2022-12-29T16:48:50;6.70;99.90
16829;DHT22;8531;48.078;11.968;2022-12-29T16:51:31;6.70;99.90
16829;DHT22;8531;48.078;11.968;2022-12-29T16:53:59;6.70;99.90
16829;DHT22;8531;48.078;11.968;2022-12-29T16:56:27;6.80;99.90
16829;DHT22;8531;48.078;11.968;2022-12-29T17:01:43;6.70;99.90
16829;DHT22;8531;48.078;11.968;2022-12-29T17:04:10;6.90;99.90
16829;DHT22;8531;48.078;11.968;2022-12-29T17:06:36;6.80;99.90
16829;DHT22;8531;48.078;11.968;2022-12-29T17:09:10;6.80;99.90
16829;DHT22;8531;48.078;11.968;2022-12-29T17:11:41;6.80;99.90
16829;DHT22;8531;48.078;11.968;2022-12-29T17:16:54;6.70;99.90
16829;DHT22;8531;48.078;11.968;2022-12-29T17:19:33;6.70;99.90
16829;DHT22;8531;48.078;11.968;2022-12-29T17:22:00;6.80;99.90
16829;DHT22;8531;48.078;11.968;2022-12-29T17:24:26;6.80;99.90
16829;DHT22;8531;48.078;11.968;2022-12-29T17:26:54;6.80;99.90
16829;DHT22;8531;48.078;11.968;2022-12-29T17:29:24;6.80;99.90
16829;DHT22;8531;48.078;11.968;2022-12-29T17:31:53;6.80;99.90
16829;DHT22;8531;48.078;11.968;2022-12-29T17:34:19;6.70;99.90
16829;DHT22;8531;48.078;11.968;2022-12-29T17:36:45;6.70;99.90
16829;DHT22;8531;48.078;11.968;2022-12-29T17:39:11;6.70;99.90
16829;DHT22;8531;48.078;11.968;2022-12-29T17:41:36;6.60;99.90
16829;DHT22;8531;48.078;11.968;2022-12-29T17:44:03;6.60;99.90
16829;DHT22;8531;48.078;11.968;2022-12-29T17:46:29;6.50;99.90
16829;DHT22;8531;48.078;11.968;2022-12-29T17:48:55;6.40;99.90
16829;DHT22;8531;48.078;11.968;2022-12-29T17:51:21;6.40;99.90
16829;DHT22;8531;48.078;11.968;2022-12-29T17:53:47;6.30;99.90
16829;DHT22;8531;48.078;11.968;2022-12-29T17:56:15;6.30;99.90
16829;DHT22;8531;48.078;11.968;2022-12-29T17:58:41;6.30;99.90
16829;DHT22;8531;48.078;11.968;2022-12-29T18:01:08;6.40;99.90
16829;DHT22;8531;48.078;11.968;2022-12-29T18:03:39;6.20;99.90
16829;DHT22;8531;48.078;11.968;2022-12-29T18:06:06;6.10;99.90
16829;DHT22;8531;48.078;11.968;2022-12-29T18:08:37;6.10;99.90
16829;DHT22;8531;48.078;11.968;2022-12-29T18:11:05;6.00;99.90
16829;DHT22;8531;48.078;11.968;2022-12-29T18:13:39;6.00;99.90
16829;DHT22;8531;48.078;11.968;2022-12-29T18:16:05;6.00;99.90
16829;DHT22;8531;48.078;11.968;2022-12-29T18:18:31;6.00;99.90
16829;DHT22;8531;48.078;11.968;2022-12-29T18:20:58;6.00;99.90
16829;DHT22;8531;48.078;11.968;2022-12-29T18:23:29;6.00;99.90
16829;DHT22;8531;48.078;11.968;2022-12-29T18:26:02;6.00;99.90
16829;DHT22;8531;48.078;11.968;2022-12-29T18:28:28;5.90;99.90
16829;DHT22;8531;48.078;11.968;2022-12-29T18:30:59;5.90;99.90